sensor_id;sensor_type;location;lat;lon;timestamp;temperature;humidity
73576;DHT22;61859;49.204;8.140;2022-08-20T00:00:46;21.90;71.50
73576;DHT22;61859;49.204;8.140;2022-08-20T00:03:31;21.90;71.50
73576;DHT22;61859;49.204;8.140;2022-08-20T00:08:28;21.80;71.80
73576;DHT22;61859;49.204;8.140;2022-08-20T00:10:55;21.80;71.70
73576;DHT22;61859;49.204;8.140;2022-08-20T00:13:27;21.80;71.70
73576;DHT22;61859;49.204;8.140;2022-08-20T00:15:53;21.70;71.80
73576;DHT22;61859;49.204;8.140;2022-08-20T00:18:20;21.70;71.90
73576;DHT22;61859;49.204;8.140;2022-08-20T00:20:48;21.70;72.20
73576;DHT22;61859;49.204;8.140;2022-08-20T00:23:15;21.60;72.20
73576;DHT22;61859;49.204;8.140;2022-08-20T00:25:41;21.70;72.20
73576;DHT22;61859;49.204;8.140;2022-08-20T00:28:08;21.60;72.30
73576;DHT22;61859;49.204;8.140;2022-08-20T00:30:35;21.50;72.10
73576;DHT22;61859;49.204;8.140;2022-08-20T00:33:07;21.50;72.30
73576;DHT22;61859;49.204;8.140;2022-08-20T00:35:35;21.50;72.40
73576;DHT22;61859;49.204;8.140;2022-08-20T00:38:01;21.50;72.70
73576;DHT22;61859;49.204;8.140;2022-08-20T00:40:31;21.40;72.60
73576;DHT22;61859;49.204;8.140;2022-08-20T00:43:01;21.50;72.60
73576;DHT22;61859;49.204;8.140;2022-08-20T00:45:30;21.40;72.90
73576;DHT22;61859;49.204;8.140;2022-08-20T00:47:56;21.40;73.10
73576;DHT22;61859;49.204;8.140;2022-08-20T00:50:39;21.50;73.40
73576;DHT22;61859;49.204;8.140;2022-08-20T00:53:05;21.50;73.50
73576;DHT22;61859;49.204;8.140;2022-08-20T00:55:33;21.50;73.50
73576;DHT22;61859;49.204;8.140;2022-08-20T00:58:03;21.60;73.10
73576;DHT22;61859;49.204;8.140;2022-08-20T01:00:37;21.60;73.30
73576;DHT22;61859;49.204;8.140;2022-08-20T01:03:05;21.60;73.20
73576;DHT22;61859;49.204;8.140;2022-08-20T01:05:34;21.60;73.00
73576;DHT22;61859;49.204;8.140;2022-08-20T01:08:00;21.70;72.70
73576;DHT22;61859;49.204;8.140;2022-08-20T01:10:28;21.70;72.40
73576;DHT22;61859;49.204;8.140;2022-08-20T01:12:57;21.90;71.90
73576;DHT22;61859;49.204;8.140;2022-08-20T01:15:26;22.00;71.80
73576;DHT22;61859;49.204;8.140;2022-08-20T01:17:56;22.00;71.30
73576;DHT22;61859;49.204;8.140;2022-08-20T01:20:38;22.10;71.30
73576;DHT22;61859;49.204;8.140;2022-08-20T01:23:20;22.20;71.00
73576;DHT22;61859;49.204;8.140;2022-08-20T01:26:16;22.20;70.80
73576;DHT22;61859;49.204;8.140;2022-08-20T01:28:50;22.20;70.80
73576;DHT22;61859;49.204;8.140;2022-08-20T01:31:25;22.30;70.70
73576;DHT22;61859;49.204;8.140;2022-08-20T01:33:52;22.20;70.80
73576;DHT22;61859;49.204;8.140;2022-08-20T01:36:22;22.30;70.80
73576;DHT22;61859;49.204;8.140;2022-08-20T01:38:48;22.20;70.80
73576;DHT22;61859;49.204;8.140;2022-08-20T01:43:46;22.20;70.70
73576;DHT22;61859;49.204;8.140;2022-08-20T01:46:12;22.30;70.60
73576;DHT22;61859;49.204;8.140;2022-08-20T01:48:40;22.30;70.90
73576;DHT22;61859;49.204;8.140;2022-08-20T01:51:17;22.30;70.60
73576;DHT22;61859;49.204;8.140;2022-08-20T01:53:47;22.30;71.00
73576;DHT22;61859;49.204;8.140;2022-08-20T01:56:16;22.40;71.00
73576;DHT22;61859;49.204;8.140;2022-08-20T01:58:47;22.20;71.10
73576;DHT22;61859;49.204;8.140;2022-08-20T02:01:33;22.30;71.10
73576;DHT22;61859;49.204;8.140;2022-08-20T02:04:00;22.30;71.00
73576;DHT22;61859;49.204;8.140;2022-08-20T02:06:30;22.30;71.20
73576;DHT22;61859;49.204;8.140;2022-08-20T02:08:58;22.40;71.10
73576;DHT22;61859;49.204;8.140;2022-08-20T02:11:25;22.30;71.20
73576;DHT22;61859;49.204;8.140;2022-08-20T02:13:52;22.30;71.40
73576;DHT22;61859;49.204;8.140;2022-08-20T02:16:23;22.40;71.40
73576;DHT22;61859;49.204;8.140;2022-08-20T02:18:51;22.40;71.30
73576;DHT22;61859;49.204;8.140;2022-08-20T02:21:20;22.40;71.40
73576;DHT22;61859;49.204;8.140;2022-08-20T02:23:47;22.30;71.50
73576;DHT22;61859;49.204;8.140;2022-08-20T02:26:12;22.20;71.60
73576;DHT22;61859;49.204;8.140;2022-08-20T02:28:38;22.20;71.60
73576;DHT22;61859;49.204;8.140;2022-08-20T02:31:03;22.30;71.60
73576;DHT22;61859;49.204;8.140;2022-08-20T02:33:33;22.30;71.80
73576;DHT22;61859;49.204;8.140;2022-08-20T02:35:58;22.30;71.80
73576;DHT22;61859;49.204;8.140;2022-08-20T02:38:24;22.20;71.90
73576;DHT22;61859;49.204;8.140;2022-08-20T02:40:49;22.20;71.90
73576;DHT22;61859;49.204;8.140;2022-08-20T02:43:16;22.30;72.00
73576;DHT22;61859;49.204;8.140;2022-08-20T02:45:43;22.20;72.10
73576;DHT22;61859;49.204;8.140;2022-08-20T02:48:14;22.20;72.40
73576;DHT22;61859;49.204;8.140;2022-08-20T02:50:46;22.20;72.50
73576;DHT22;61859;49.204;8.140;2022-08-20T02:53:12;22.20;72.50
73576;DHT22;61859;49.204;8.140;2022-08-20T02:55:37;22.10;72.40
73576;DHT22;61859;49.204;8.140;2022-08-20T02:58:03;22.20;72.50
73576;DHT22;61859;49.204;8.140;2022-08-20T03:00:30;22.20;72.50
73576;DHT22;61859;49.204;8.140;2022-08-20T03:02:56;22.20;72.60
73576;DHT22;61859;49.204;8.140;2022-08-20T03:05:21;22.20;72.70
73576;DHT22;61859;49.204;8.140;2022-08-20T03:07:50;22.10;73.00
73576;DHT22;61859;49.204;8.140;2022-08-20T03:10:22;22.10;73.00
73576;DHT22;61859;49.204;8.140;2022-08-20T03:12:47;22.10;72.90
73576;DHT22;61859;49.204;8.140;2022-08-20T03:15:13;22.10;73.50
73576;DHT22;61859;49.204;8.140;2022-08-20T03:17:38;22.10;73.20
73576;DHT22;61859;49.204;8.140;2022-08-20T03:20:06;22.10;73.20
73576;DHT22;61859;49.204;8.140;2022-08-20T03:22:32;22.00;73.20
73576;DHT22;61859;49.204;8.140;2022-08-20T03:24:58;22.00;73.30
73576;DHT22;61859;49.204;8.140;2022-08-20T03:27:24;22.00;73.50
73576;DHT22;61859;49.204;8.140;2022-08-20T03:29:49;22.00;73.60
73576;DHT22;61859;49.204;8.140;2022-08-20T03:32:15;22.00;73.50
73576;DHT22;61859;49.204;8.140;2022-08-20T03:34:40;22.00;74.00
73576;DHT22;61859;49.204;8.140;2022-08-20T03:37:06;21.90;74.10
73576;DHT22;61859;49.204;8.140;2022-08-20T03:39:31;21.90;74.20
73576;DHT22;61859;49.204;8.140;2022-08-20T03:41:57;21.90;74.40
73576;DHT22;61859;49.204;8.140;2022-08-20T03:44:22;21.90;74.50
73576;DHT22;61859;49.204;8.140;2022-08-20T03:46:48;21.90;74.50
73576;DHT22;61859;49.204;8.140;2022-08-20T03:49:14;21.80;74.70
73576;DHT22;61859;49.204;8.140;2022-08-20T03:51:40;21.80;74.90
73576;DHT22;61859;49.204;8.140;2022-08-20T03:54:06;21.80;74.90
73576;DHT22;61859;49.204;8.140;2022-08-20T03:56:32;21.80;75.10
73576;DHT22;61859;49.204;8.140;2022-08-20T03:58:57;21.70;75.30
73576;DHT22;61859;49.204;8.140;2022-08-20T04:01:23;21.80;75.40
73576;DHT22;61859;49.204;8.140;2022-08-20T04:03:48;21.70;75.50
73576;DHT22;61859;49.204;8.140;2022-08-20T04:06:14;21.70;75.60
73576;DHT22;61859;49.204;8.140;2022-08-20T04:08:39;21.70;75.70
73576;DHT22;61859;49.204;8.140;2022-08-20T04:11:06;21.70;75.70
73576;DHT22;61859;49.204;8.140;2022-08-20T04:13:32;21.60;75.80
73576;DHT22;61859;49.204;8.140;2022-08-20T04:16:01;21.60;76.00
73576;DHT22;61859;49.204;8.140;2022-08-20T04:18:28;21.60;76.20
73576;DHT22;61859;49.204;8.140;2022-08-20T04:20:54;21.60;76.30
73576;DHT22;61859;49.204;8.140;2022-08-20T04:23:20;21.50;76.50
73576;DHT22;61859;49.204;8.140;2022-08-20T04:25:46;21.50;76.50
73576;DHT22;61859;49.204;8.140;2022-08-20T04:28:16;21.50;76.90
73576;DHT22;61859;49.204;8.140;2022-08-20T04:30:45;21.40;76.90
73576;DHT22;61859;49.204;8.140;2022-08-20T04:33:11;21.50;77.00
73576;DHT22;61859;49.204;8.140;2022-08-20T04:35:36;21.40;77.00
73576;DHT22;61859;49.204;8.140;2022-08-20T04:38:05;21.40;77.20
73576;DHT22;61859;49.204;8.140;2022-08-20T04:40:32;21.40;77.20
73576;DHT22;61859;49.204;8.140;2022-08-20T04:43:16;21.40;77.30
73576;DHT22;61859;49.204;8.140;2022-08-20T04:45:44;21.40;77.40
73576;DHT22;61859;49.204;8.140;2022-08-20T04:48:11;21.40;77.40
73576;DHT22;61859;49.204;8.140;2022-08-20T04:50:38;21.30;77.60
73576;DHT22;61859;49.204;8.140;2022-08-20T04:53:08;21.30;77.60
73576;DHT22;61859;49.204;8.140;2022-08-20T04:55:36;21.30;77.70
73576;DHT22;61859;49.204;8.140;2022-08-20T04:58:05;21.30;77.90
73576;DHT22;61859;49.204;8.140;2022-08-20T05:00:32;21.30;78.00
73576;DHT22;61859;49.204;8.140;2022-08-20T05:02:58;21.30;77.90
73576;DHT22;61859;49.204;8.140;2022-08-20T05:05:23;21.30;78.00
73576;DHT22;61859;49.204;8.140;2022-08-20T05:07:49;21.40;78.10
73576;DHT22;61859;49.204;8.140;2022-08-20T05:10:16;21.40;78.00
73576;DHT22;61859;49.204;8.140;2022-08-20T05:12:43;21.30;78.00
73576;DHT22;61859;49.204;8.140;2022-08-20T05:15:11;21.40;78.00
73576;DHT22;61859;49.204;8.140;2022-08-20T05:17:38;21.30;78.20
73576;DHT22;61859;49.204;8.140;2022-08-20T05:20:06;21.30;78.00
73576;DHT22;61859;49.204;8.140;2022-08-20T05:22:32;21.40;78.10
73576;DHT22;61859;49.204;8.140;2022-08-20T05:24:58;21.40;78.10
73576;DHT22;61859;49.204;8.140;2022-08-20T05:27:25;21.40;77.90
73576;DHT22;61859;49.204;8.140;2022-08-20T05:29:52;21.50;77.70
73576;DHT22;61859;49.204;8.140;2022-08-20T05:32:19;21.50;77.70
73576;DHT22;61859;49.204;8.140;2022-08-20T05:34:44;21.60;77.70
73576;DHT22;61859;49.204;8.140;2022-08-20T05:37:10;21.70;76.80
73576;DHT22;61859;49.204;8.140;2022-08-20T05:39:35;21.80;76.60
73576;DHT22;61859;49.204;8.140;2022-08-20T05:42:01;21.90;76.00
73576;DHT22;61859;49.204;8.140;2022-08-20T05:44:27;21.90;75.90
73576;DHT22;61859;49.204;8.140;2022-08-20T05:46:52;22.10;75.70
73576;DHT22;61859;49.204;8.140;2022-08-20T05:49:19;22.00;75.30
73576;DHT22;61859;49.204;8.140;2022-08-20T05:51:46;22.20;75.00
73576;DHT22;61859;49.204;8.140;2022-08-20T05:54:12;22.20;74.90
73576;DHT22;61859;49.204;8.140;2022-08-20T05:56:38;22.30;74.70
73576;DHT22;61859;49.204;8.140;2022-08-20T05:59:05;22.30;74.20
73576;DHT22;61859;49.204;8.140;2022-08-20T06:01:33;22.30;74.30
73576;DHT22;61859;49.204;8.140;2022-08-20T06:03:59;22.20;74.20
73576;DHT22;61859;49.204;8.140;2022-08-20T06:06:43;22.30;74.40
73576;DHT22;61859;49.204;8.140;2022-08-20T06:09:09;22.20;74.60
73576;DHT22;61859;49.204;8.140;2022-08-20T06:11:35;22.30;74.40
73576;DHT22;61859;49.204;8.140;2022-08-20T06:14:00;22.30;74.40
73576;DHT22;61859;49.204;8.140;2022-08-20T06:16:27;22.20;74.60
73576;DHT22;61859;49.204;8.140;2022-08-20T06:18:52;22.20;74.70
73576;DHT22;61859;49.204;8.140;2022-08-20T06:21:18;22.10;74.90
73576;DHT22;61859;49.204;8.140;2022-08-20T06:23:43;22.20;75.30
73576;DHT22;61859;49.204;8.140;2022-08-20T06:26:10;22.20;74.90
73576;DHT22;61859;49.204;8.140;2022-08-20T06:28:35;22.20;74.90
73576;DHT22;61859;49.204;8.140;2022-08-20T06:31:01;22.20;74.80
73576;DHT22;61859;49.204;8.140;2022-08-20T06:33:27;22.30;75.20
73576;DHT22;61859;49.204;8.140;2022-08-20T06:35:53;22.30;74.60
73576;DHT22;61859;49.204;8.140;2022-08-20T06:38:19;22.50;74.30
73576;DHT22;61859;49.204;8.140;2022-08-20T06:40:45;22.50;73.80
73576;DHT22;61859;49.204;8.140;2022-08-20T06:43:11;22.60;73.90
73576;DHT22;61859;49.204;8.140;2022-08-20T06:45:37;22.70;73.90
73576;DHT22;61859;49.204;8.140;2022-08-20T06:48:09;22.80;73.00
73576;DHT22;61859;49.204;8.140;2022-08-20T06:50:38;23.00;73.30
73576;DHT22;61859;49.204;8.140;2022-08-20T06:53:08;23.00;72.60
73576;DHT22;61859;49.204;8.140;2022-08-20T06:55:36;23.00;72.30
73576;DHT22;61859;49.204;8.140;2022-08-20T06:58:05;23.00;71.90
73576;DHT22;61859;49.204;8.140;2022-08-20T07:00:33;23.00;72.30
73576;DHT22;61859;49.204;8.140;2022-08-20T07:02:59;22.90;72.70
73576;DHT22;61859;49.204;8.140;2022-08-20T07:05:27;23.00;72.50
73576;DHT22;61859;49.204;8.140;2022-08-20T07:07:52;23.00;72.60
73576;DHT22;61859;49.204;8.140;2022-08-20T07:10:19;23.00;72.20
73576;DHT22;61859;49.204;8.140;2022-08-20T07:12:45;23.00;72.60
73576;DHT22;61859;49.204;8.140;2022-08-20T07:15:12;23.00;72.80
73576;DHT22;61859;49.204;8.140;2022-08-20T07:17:38;22.90;72.60
73576;DHT22;61859;49.204;8.140;2022-08-20T07:20:07;22.80;73.40
73576;DHT22;61859;49.204;8.140;2022-08-20T07:22:33;22.70;73.30
73576;DHT22;61859;49.204;8.140;2022-08-20T07:25:03;22.60;73.90
73576;DHT22;61859;49.204;8.140;2022-08-20T07:27:29;22.60;74.10
73576;DHT22;61859;49.204;8.140;2022-08-20T07:29:54;22.60;74.30
73576;DHT22;61859;49.204;8.140;2022-08-20T07:32:39;22.60;74.40
73576;DHT22;61859;49.204;8.140;2022-08-20T07:35:11;22.60;74.70
73576;DHT22;61859;49.204;8.140;2022-08-20T07:37:39;22.50;75.10
73576;DHT22;61859;49.204;8.140;2022-08-20T07:40:11;22.50;75.10
73576;DHT22;61859;49.204;8.140;2022-08-20T07:42:37;22.50;75.20
73576;DHT22;61859;49.204;8.140;2022-08-20T07:45:09;22.50;75.30
73576;DHT22;61859;49.204;8.140;2022-08-20T07:47:36;22.50;75.60
73576;DHT22;61859;49.204;8.140;2022-08-20T07:50:04;22.70;74.90
73576;DHT22;61859;49.204;8.140;2022-08-20T07:52:30;22.70;74.80
73576;DHT22;61859;49.204;8.140;2022-08-20T07:54:55;22.60;74.50
73576;DHT22;61859;49.204;8.140;2022-08-20T07:57:21;22.60;74.10
73576;DHT22;61859;49.204;8.140;2022-08-20T07:59:47;22.70;73.80
73576;DHT22;61859;49.204;8.140;2022-08-20T08:02:13;22.70;74.10
73576;DHT22;61859;49.204;8.140;2022-08-20T08:04:38;22.80;74.00
73576;DHT22;61859;49.204;8.140;2022-08-20T08:07:04;22.80;74.40
73576;DHT22;61859;49.204;8.140;2022-08-20T08:09:31;22.90;74.80
73576;DHT22;61859;49.204;8.140;2022-08-20T08:11:58;23.10;73.40
73576;DHT22;61859;49.204;8.140;2022-08-20T08:14:27;23.10;72.90
73576;DHT22;61859;49.204;8.140;2022-08-20T08:16:56;23.20;72.20
73576;DHT22;61859;49.204;8.140;2022-08-20T08:19:24;23.30;71.70
73576;DHT22;61859;49.204;8.140;2022-08-20T08:21:50;23.40;71.90
73576;DHT22;61859;49.204;8.140;2022-08-20T08:24:16;23.30;71.90
73576;DHT22;61859;49.204;8.140;2022-08-20T08:26:43;23.30;72.20
73576;DHT22;61859;49.204;8.140;2022-08-20T08:29:09;23.30;71.50
73576;DHT22;61859;49.204;8.140;2022-08-20T08:31:36;23.20;71.60
73576;DHT22;61859;49.204;8.140;2022-08-20T08:34:02;23.20;72.20
73576;DHT22;61859;49.204;8.140;2022-08-20T08:36:27;23.30;72.10
73576;DHT22;61859;49.204;8.140;2022-08-20T08:38:53;23.40;71.50
73576;DHT22;61859;49.204;8.140;2022-08-20T08:41:35;23.50;70.90
73576;DHT22;61859;49.204;8.140;2022-08-20T08:44:14;23.60;70.70
73576;DHT22;61859;49.204;8.140;2022-08-20T08:46:46;23.80;70.60
73576;DHT22;61859;49.204;8.140;2022-08-20T08:49:16;24.00;70.80
73576;DHT22;61859;49.204;8.140;2022-08-20T08:51:56;24.10;68.50
73576;DHT22;61859;49.204;8.140;2022-08-20T08:54:26;24.30;68.80
73576;DHT22;61859;49.204;8.140;2022-08-20T08:56:52;24.50;67.80
73576;DHT22;61859;49.204;8.140;2022-08-20T08:59:20;24.70;66.70
73576;DHT22;61859;49.204;8.140;2022-08-20T09:01:57;24.70;66.60
73576;DHT22;61859;49.204;8.140;2022-08-20T09:04:41;24.80;65.70
73576;DHT22;61859;49.204;8.140;2022-08-20T09:07:11;25.00;65.10
73576;DHT22;61859;49.204;8.140;2022-08-20T09:09:39;25.00;65.20
73576;DHT22;61859;49.204;8.140;2022-08-20T09:12:09;25.10;64.90
73576;DHT22;61859;49.204;8.140;2022-08-20T09:14:35;25.20;65.40
73576;DHT22;61859;49.204;8.140;2022-08-20T09:17:01;25.40;64.50
73576;DHT22;61859;49.204;8.140;2022-08-20T09:19:27;25.80;63.80
73576;DHT22;61859;49.204;8.140;2022-08-20T09:21:53;26.20;60.10
73576;DHT22;61859;49.204;8.140;2022-08-20T09:24:18;26.40;59.20
73576;DHT22;61859;49.204;8.140;2022-08-20T09:26:44;26.60;60.20
73576;DHT22;61859;49.204;8.140;2022-08-20T09:29:10;26.80;58.20
73576;DHT22;61859;49.204;8.140;2022-08-20T09:31:36;27.00;57.90
73576;DHT22;61859;49.204;8.140;2022-08-20T09:34:02;27.00;57.50
73576;DHT22;61859;49.204;8.140;2022-08-20T09:36:27;26.90;57.60
73576;DHT22;61859;49.204;8.140;2022-08-20T09:38:53;26.50;57.10
73576;DHT22;61859;49.204;8.140;2022-08-20T09:41:19;26.40;59.00
73576;DHT22;61859;49.204;8.140;2022-08-20T09:43:44;26.40;58.50
73576;DHT22;61859;49.204;8.140;2022-08-20T09:46:10;26.50;57.50
73576;DHT22;61859;49.204;8.140;2022-08-20T09:48:35;26.50;56.40
73576;DHT22;61859;49.204;8.140;2022-08-20T09:51:01;26.60;56.90
73576;DHT22;61859;49.204;8.140;2022-08-20T09:53:27;26.70;56.10
73576;DHT22;61859;49.204;8.140;2022-08-20T09:55:54;27.00;56.80
73576;DHT22;61859;49.204;8.140;2022-08-20T09:58:22;27.50;54.10
73576;DHT22;61859;49.204;8.140;2022-08-20T10:00:48;27.90;54.30
73576;DHT22;61859;49.204;8.140;2022-08-20T10:03:14;28.00;53.60
73576;DHT22;61859;49.204;8.140;2022-08-20T10:05:40;28.00;52.70
73576;DHT22;61859;49.204;8.140;2022-08-20T10:08:07;27.80;53.60
73576;DHT22;61859;49.204;8.140;2022-08-20T10:10:33;27.40;54.10
73576;DHT22;61859;49.204;8.140;2022-08-20T10:12:58;27.10;54.70
73576;DHT22;61859;49.204;8.140;2022-08-20T10:15:24;27.00;54.80
73576;DHT22;61859;49.204;8.140;2022-08-20T10:17:49;26.90;55.40
73576;DHT22;61859;49.204;8.140;2022-08-20T10:20:15;27.10;54.50
73576;DHT22;61859;49.204;8.140;2022-08-20T10:22:42;27.20;54.30
73576;DHT22;61859;49.204;8.140;2022-08-20T10:25:09;27.20;55.10
73576;DHT22;61859;49.204;8.140;2022-08-20T10:27:35;27.30;55.30
73576;DHT22;61859;49.204;8.140;2022-08-20T10:30:01;27.30;53.70
73576;DHT22;61859;49.204;8.140;2022-08-20T10:32:26;27.20;52.90
73576;DHT22;61859;49.204;8.140;2022-08-20T10:34:52;26.90;53.30
73576;DHT22;61859;49.204;8.140;2022-08-20T10:37:20;26.70;54.40
73576;DHT22;61859;49.204;8.140;2022-08-20T10:39:46;27.00;53.10
73576;DHT22;61859;49.204;8.140;2022-08-20T10:42:12;27.60;51.70
73576;DHT22;61859;49.204;8.140;2022-08-20T10:44:38;27.90;51.80
73576;DHT22;61859;49.204;8.140;2022-08-20T10:47:23;28.30;52.20
73576;DHT22;61859;49.204;8.140;2022-08-20T10:49:52;28.90;49.60
73576;DHT22;61859;49.204;8.140;2022-08-20T10:52:18;29.40;47.40
73576;DHT22;61859;49.204;8.140;2022-08-20T10:54:44;29.40;47.00
73576;DHT22;61859;49.204;8.140;2022-08-20T10:57:21;29.20;47.30
73576;DHT22;61859;49.204;8.140;2022-08-20T10:59:49;29.30;47.70
73576;DHT22;61859;49.204;8.140;2022-08-20T11:02:15;29.10;47.50
73576;DHT22;61859;49.204;8.140;2022-08-20T11:04:41;29.10;47.80
73576;DHT22;61859;49.204;8.140;2022-08-20T11:07:14;29.20;48.10
73576;DHT22;61859;49.204;8.140;2022-08-20T11:09:41;29.20;47.40
73576;DHT22;61859;49.204;8.140;2022-08-20T11:12:07;29.40;47.20
73576;DHT22;61859;49.204;8.140;2022-08-20T11:14:33;29.60;46.80
73576;DHT22;61859;49.204;8.140;2022-08-20T11:16:59;29.70;46.50
73576;DHT22;61859;49.204;8.140;2022-08-20T11:19:25;29.60;47.60
73576;DHT22;61859;49.204;8.140;2022-08-20T11:21:50;29.70;46.70
73576;DHT22;61859;49.204;8.140;2022-08-20T11:24:16;29.50;46.10
73576;DHT22;61859;49.204;8.140;2022-08-20T11:26:45;29.60;47.30
73576;DHT22;61859;49.204;8.140;2022-08-20T11:29:12;29.80;46.30
73576;DHT22;61859;49.204;8.140;2022-08-20T11:31:37;30.00;46.20
73576;DHT22;61859;49.204;8.140;2022-08-20T11:34:03;29.80;45.60
73576;DHT22;61859;49.204;8.140;2022-08-20T11:36:28;30.00;44.80
73576;DHT22;61859;49.204;8.140;2022-08-20T11:38:54;30.10;45.40
73576;DHT22;61859;49.204;8.140;2022-08-20T11:41:20;30.10;45.00
73576;DHT22;61859;49.204;8.140;2022-08-20T11:43:45;30.00;45.20
73576;DHT22;61859;49.204;8.140;2022-08-20T11:46:11;30.00;45.10
73576;DHT22;61859;49.204;8.140;2022-08-20T11:48:36;30.30;43.60
73576;DHT22;61859;49.204;8.140;2022-08-20T11:51:02;30.20;43.30
73576;DHT22;61859;49.204;8.140;2022-08-20T11:53:29;30.40;42.80
73576;DHT22;61859;49.204;8.140;2022-08-20T11:55:55;30.70;39.90
73576;DHT22;61859;49.204;8.140;2022-08-20T11:58:20;31.10;38.40
73576;DHT22;61859;49.204;8.140;2022-08-20T12:00:46;31.50;37.90
73576;DHT22;61859;49.204;8.140;2022-08-20T12:03:12;31.90;37.60
73576;DHT22;61859;49.204;8.140;2022-08-20T12:05:40;32.00;38.50
73576;DHT22;61859;49.204;8.140;2022-08-20T12:08:06;31.30;39.70
73576;DHT22;61859;49.204;8.140;2022-08-20T12:10:34;30.40;40.40
73576;DHT22;61859;49.204;8.140;2022-08-20T12:13:00;30.30;38.10
73576;DHT22;61859;49.204;8.140;2022-08-20T12:15:25;30.10;38.30
73576;DHT22;61859;49.204;8.140;2022-08-20T12:17:52;30.20;37.90
73576;DHT22;61859;49.204;8.140;2022-08-20T12:20:18;30.20;37.90
73576;DHT22;61859;49.204;8.140;2022-08-20T12:22:43;30.30;37.40
73576;DHT22;61859;49.204;8.140;2022-08-20T12:25:10;30.40;38.00
73576;DHT22;61859;49.204;8.140;2022-08-20T12:27:36;30.60;37.70
73576;DHT22;61859;49.204;8.140;2022-08-20T12:30:09;31.20;37.50
73576;DHT22;61859;49.204;8.140;2022-08-20T12:32:35;31.80;37.20
73576;DHT22;61859;49.204;8.140;2022-08-20T12:35:01;31.90;35.60
73576;DHT22;61859;49.204;8.140;2022-08-20T12:37:28;32.00;34.70
73576;DHT22;61859;49.204;8.140;2022-08-20T12:39:56;32.10;35.30
73576;DHT22;61859;49.204;8.140;2022-08-20T12:42:22;32.40;35.40
73576;DHT22;61859;49.204;8.140;2022-08-20T12:44:48;32.20;35.60
73576;DHT22;61859;49.204;8.140;2022-08-20T12:47:21;32.10;35.60
73576;DHT22;61859;49.204;8.140;2022-08-20T12:49:51;32.60;35.30
73576;DHT22;61859;49.204;8.140;2022-08-20T12:52:19;32.70;35.10
73576;DHT22;61859;49.204;8.140;2022-08-20T12:54:45;32.60;35.10
73576;DHT22;61859;49.204;8.140;2022-08-20T12:57:17;32.60;35.30
73576;DHT22;61859;49.204;8.140;2022-08-20T12:59:46;32.60;35.40
73576;DHT22;61859;49.204;8.140;2022-08-20T13:02:12;32.60;34.40
73576;DHT22;61859;49.204;8.140;2022-08-20T13:04:37;32.30;34.20
73576;DHT22;61859;49.204;8.140;2022-08-20T13:07:03;32.40;32.60
73576;DHT22;61859;49.204;8.140;2022-08-20T13:09:29;32.40;32.80
73576;DHT22;61859;49.204;8.140;2022-08-20T13:11:54;32.50;32.40
73576;DHT22;61859;49.204;8.140;2022-08-20T13:14:20;32.20;33.40
73576;DHT22;61859;49.204;8.140;2022-08-20T13:16:46;32.70;32.00
73576;DHT22;61859;49.204;8.140;2022-08-20T13:19:11;33.00;31.30
73576;DHT22;61859;49.204;8.140;2022-08-20T13:21:37;33.30;30.70
73576;DHT22;61859;49.204;8.140;2022-08-20T13:24:02;32.90;30.50
73576;DHT22;61859;49.204;8.140;2022-08-20T13:26:28;33.00;31.80
73576;DHT22;61859;49.204;8.140;2022-08-20T13:28:54;33.60;30.90
73576;DHT22;61859;49.204;8.140;2022-08-20T13:31:19;33.90;30.40
73576;DHT22;61859;49.204;8.140;2022-08-20T13:33:45;34.20;30.30
73576;DHT22;61859;49.204;8.140;2022-08-20T13:36:11;34.90;30.40
73576;DHT22;61859;49.204;8.140;2022-08-20T13:38:37;35.20;30.30
73576;DHT22;61859;49.204;8.140;2022-08-20T13:41:02;35.50;29.90
73576;DHT22;61859;49.204;8.140;2022-08-20T13:43:28;35.70;29.50
73576;DHT22;61859;49.204;8.140;2022-08-20T13:45:53;35.40;29.70
73576;DHT22;61859;49.204;8.140;2022-08-20T13:48:19;35.50;30.00
73576;DHT22;61859;49.204;8.140;2022-08-20T13:50:45;35.80;31.70
73576;DHT22;61859;49.204;8.140;2022-08-20T13:53:10;35.80;30.30
73576;DHT22;61859;49.204;8.140;2022-08-20T13:55:36;35.80;30.30
73576;DHT22;61859;49.204;8.140;2022-08-20T13:58:05;36.00;29.90
73576;DHT22;61859;49.204;8.140;2022-08-20T14:00:32;36.00;29.00
73576;DHT22;61859;49.204;8.140;2022-08-20T14:02:59;35.50;28.80
73576;DHT22;61859;49.204;8.140;2022-08-20T14:05:25;35.30;28.30
73576;DHT22;61859;49.204;8.140;2022-08-20T14:07:50;34.50;29.70
73576;DHT22;61859;49.204;8.140;2022-08-20T14:10:22;34.70;29.70
73576;DHT22;61859;49.204;8.140;2022-08-20T14:12:49;34.60;28.40
73576;DHT22;61859;49.204;8.140;2022-08-20T14:15:15;34.40;28.40
73576;DHT22;61859;49.204;8.140;2022-08-20T14:17:49;34.00;29.10
73576;DHT22;61859;49.204;8.140;2022-08-20T14:20:16;34.10;29.30
73576;DHT22;61859;49.204;8.140;2022-08-20T14:22:43;34.10;29.30
73576;DHT22;61859;49.204;8.140;2022-08-20T14:25:11;33.70;29.60
73576;DHT22;61859;49.204;8.140;2022-08-20T14:27:38;34.30;29.50
73576;DHT22;61859;49.204;8.140;2022-08-20T14:30:08;34.80;29.10
73576;DHT22;61859;49.204;8.140;2022-08-20T14:32:34;35.40;28.70
73576;DHT22;61859;49.204;8.140;2022-08-20T14:34:59;36.00;28.60
73576;DHT22;61859;49.204;8.140;2022-08-20T14:37:31;36.50;27.90
73576;DHT22;61859;49.204;8.140;2022-08-20T14:39:58;36.90;28.00
73576;DHT22;61859;49.204;8.140;2022-08-20T14:42:25;37.20;27.60
73576;DHT22;61859;49.204;8.140;2022-08-20T14:44:53;37.00;27.40
73576;DHT22;61859;49.204;8.140;2022-08-20T14:47:24;36.90;28.40
73576;DHT22;61859;49.204;8.140;2022-08-20T14:49:52;37.00;27.80
73576;DHT22;61859;49.204;8.140;2022-08-20T14:52:20;37.20;28.00
73576;DHT22;61859;49.204;8.140;2022-08-20T14:54:46;37.20;27.30
73576;DHT22;61859;49.204;8.140;2022-08-20T14:57:13;36.60;27.50
73576;DHT22;61859;49.204;8.140;2022-08-20T14:59:39;35.70;28.70
73576;DHT22;61859;49.204;8.140;2022-08-20T15:02:07;35.60;29.20
73576;DHT22;61859;49.204;8.140;2022-08-20T15:04:33;36.10;27.90
73576;DHT22;61859;49.204;8.140;2022-08-20T15:06:59;36.30;27.80
73576;DHT22;61859;49.204;8.140;2022-08-20T15:09:29;36.00;27.70
73576;DHT22;61859;49.204;8.140;2022-08-20T15:11:55;35.70;28.50
73576;DHT22;61859;49.204;8.140;2022-08-20T15:14:21;35.30;28.00
73576;DHT22;61859;49.204;8.140;2022-08-20T15:16:46;34.90;29.40
73576;DHT22;61859;49.204;8.140;2022-08-20T15:19:12;34.80;28.80
73576;DHT22;61859;49.204;8.140;2022-08-20T15:21:38;34.90;28.70
73576;DHT22;61859;49.204;8.140;2022-08-20T15:24:04;34.80;28.20
73576;DHT22;61859;49.204;8.140;2022-08-20T15:26:29;34.60;28.70
73576;DHT22;61859;49.204;8.140;2022-08-20T15:28:55;34.40;28.70
73576;DHT22;61859;49.204;8.140;2022-08-20T15:31:20;34.00;28.70
73576;DHT22;61859;49.204;8.140;2022-08-20T15:33:46;33.70;28.90
73576;DHT22;61859;49.204;8.140;2022-08-20T15:36:11;33.40;29.50